sensor_id;sensor_type;location;lat;lon;timestamp;P1;durP1;ratioP1;P2;durP2;ratioP2
8230;SDS011;4156;50.908;6.974;2022-07-12T00:00:52;9.90;;;7.47;;
8230;SDS011;4156;50.908;6.974;2022-07-12T00:03:17;11.07;;;8.73;;
8230;SDS011;4156;50.908;6.974;2022-07-12T00:05:43;11.07;;;8.50;;
8230;SDS011;4156;50.908;6.974;2022-07-12T00:08:09;10.13;;;8.43;;
8230;SDS011;4156;50.908;6.974;2022-07-12T00:10:34;9.67;;;7.77;;
8230;SDS011;4156;50.908;6.974;2022-07-12T00:13:00;10.33;;;8.03;;
8230;SDS011;4156;50.908;6.974;2022-07-12T00:15:26;11.67;;;9.33;;
8230;SDS011;4156;50.908;6.974;2022-07-12T00:17:52;10.10;;;8.00;;
8230;SDS011;4156;50.908;6.974;2022-07-12T00:20:17;13.13;;;8.97;;
8230;SDS011;4156;50.908;6.974;2022-07-12T00:22:43;11.57;;;9.13;;
8230;SDS011;4156;50.908;6.974;2022-07-12T00:25:09;11.00;;;9.00;;
8230;SDS011;4156;50.908;6.974;2022-07-12T00:27:34;11.10;;;8.40;;
8230;SDS011;4156;50.908;6.974;2022-07-12T00:30:00;11.73;;;8.07;;
8230;SDS011;4156;50.908;6.974;2022-07-12T00:32:25;11.13;;;8.53;;
8230;SDS011;4156;50.908;6.974;2022-07-12T00:34:51;11.30;;;8.93;;
8230;SDS011;4156;50.908;6.974;2022-07-12T00:37:17;11.10;;;9.30;;
8230;SDS011;4156;50.908;6.974;2022-07-12T00:39:42;11.10;;;8.50;;
8230;SDS011;4156;50.908;6.974;2022-07-12T00:42:07;10.10;;;8.67;;
8230;SDS011;4156;50.908;6.974;2022-07-12T00:44:33;11.87;;;8.50;;
8230;SDS011;4156;50.908;6.974;2022-07-12T00:46:59;12.67;;;8.83;;
8230;SDS011;4156;50.908;6.974;2022-07-12T00:49:26;11.73;;;8.43;;
8230;SDS011;4156;50.908;6.974;2022-07-12T00:51:52;12.07;;;8.60;;
8230;SDS011;4156;50.908;6.974;2022-07-12T00:54:19;10.07;;;8.23;;
8230;SDS011;4156;50.908;6.974;2022-07-12T00:56:45;10.67;;;8.20;;
8230;SDS011;4156;50.908;6.974;2022-07-12T00:59:11;10.63;;;8.07;;
8230;SDS011;4156;50.908;6.974;2022-07-12T01:01:36;10.87;;;8.30;;
8230;SDS011;4156;50.908;6.974;2022-07-12T01:04:03;10.50;;;8.27;;
8230;SDS011;4156;50.908;6.974;2022-07-12T01:06:30;10.57;;;8.53;;
8230;SDS011;4156;50.908;6.974;2022-07-12T01:08:56;11.50;;;8.37;;
8230;SDS011;4156;50.908;6.974;2022-07-12T01:11:24;10.90;;;8.63;;
8230;SDS011;4156;50.908;6.974;2022-07-12T01:13:50;11.57;;;9.43;;
8230;SDS011;4156;50.908;6.974;2022-07-12T01:16:17;10.73;;;8.47;;
8230;SDS011;4156;50.908;6.974;2022-07-12T01:18:44;12.33;;;8.40;;
8230;SDS011;4156;50.908;6.974;2022-07-12T01:21:10;10.87;;;8.80;;
8230;SDS011;4156;50.908;6.974;2022-07-12T01:23:41;10.53;;;8.10;;
8230;SDS011;4156;50.908;6.974;2022-07-12T01:26:07;11.03;;;8.70;;
8230;SDS011;4156;50.908;6.974;2022-07-12T01:28:32;12.27;;;9.33;;
8230;SDS011;4156;50.908;6.974;2022-07-12T01:30:59;9.43;;;7.77;;
8230;SDS011;4156;50.908;6.974;2022-07-12T01:33:25;11.30;;;8.63;;
8230;SDS011;4156;50.908;6.974;2022-07-12T01:35:51;12.13;;;8.60;;
8230;SDS011;4156;50.908;6.974;2022-07-12T01:38:17;10.33;;;8.87;;
8230;SDS011;4156;50.908;6.974;2022-07-12T01:40:42;10.63;;;8.87;;
8230;SDS011;4156;50.908;6.974;2022-07-12T01:43:08;11.20;;;9.37;;
8230;SDS011;4156;50.908;6.974;2022-07-12T01:45:34;10.37;;;8.63;;
8230;SDS011;4156;50.908;6.974;2022-07-12T01:47:59;10.90;;;8.57;;
8230;SDS011;4156;50.908;6.974;2022-07-12T01:50:25;11.57;;;9.17;;
8230;SDS011;4156;50.908;6.974;2022-07-12T01:52:51;12.07;;;8.63;;
8230;SDS011;4156;50.908;6.974;2022-07-12T01:55:17;11.20;;;9.23;;
8230;SDS011;4156;50.908;6.974;2022-07-12T01:57:43;11.17;;;8.90;;
8230;SDS011;4156;50.908;6.974;2022-07-12T02:00:10;10.10;;;8.57;;
8230;SDS011;4156;50.908;6.974;2022-07-12T02:02:36;11.60;;;8.60;;
8230;SDS011;4156;50.908;6.974;2022-07-12T02:05:03;11.53;;;8.60;;
8230;SDS011;4156;50.908;6.974;2022-07-12T02:07:29;10.90;;;8.57;;
8230;SDS011;4156;50.908;6.974;2022-07-12T02:09:55;10.30;;;7.93;;
8230;SDS011;4156;50.908;6.974;2022-07-12T02:12:21;11.90;;;9.17;;
8230;SDS011;4156;50.908;6.974;2022-07-12T02:14:46;9.43;;;8.07;;
8230;SDS011;4156;50.908;6.974;2022-07-12T02:17:12;9.87;;;8.30;;
8230;SDS011;4156;50.908;6.974;2022-07-12T02:19:37;10.30;;;7.83;;
8230;SDS011;4156;50.908;6.974;2022-07-12T02:22:03;10.10;;;8.10;;
8230;SDS011;4156;50.908;6.974;2022-07-12T02:24:28;11.97;;;8.30;;
8230;SDS011;4156;50.908;6.974;2022-07-12T02:26:54;10.80;;;8.53;;
8230;SDS011;4156;50.908;6.974;2022-07-12T02:29:20;11.90;;;8.67;;
8230;SDS011;4156;50.908;6.974;2022-07-12T02:31:45;12.63;;;9.30;;
8230;SDS011;4156;50.908;6.974;2022-07-12T02:34:11;11.73;;;8.93;;
8230;SDS011;4156;50.908;6.974;2022-07-12T02:36:36;10.43;;;8.23;;
8230;SDS011;4156;50.908;6.974;2022-07-12T02:39:02;11.27;;;8.97;;
8230;SDS011;4156;50.908;6.974;2022-07-12T02:41:29;11.30;;;8.33;;
8230;SDS011;4156;50.908;6.974;2022-07-12T02:43:55;10.07;;;8.17;;
8230;SDS011;4156;50.908;6.974;2022-07-12T02:46:21;9.07;;;7.50;;
8230;SDS011;4156;50.908;6.974;2022-07-12T02:48:47;11.93;;;8.17;;
8230;SDS011;4156;50.908;6.974;2022-07-12T02:51:12;9.30;;;7.73;;
8230;SDS011;4156;50.908;6.974;2022-07-12T02:53:38;10.87;;;8.67;;
8230;SDS011;4156;50.908;6.974;2022-07-12T02:56:04;10.10;;;8.03;;
8230;SDS011;4156;50.908;6.974;2022-07-12T02:58:30;11.60;;;9.63;;
8230;SDS011;4156;50.908;6.974;2022-07-12T03:00:55;10.57;;;8.60;;
8230;SDS011;4156;50.908;6.974;2022-07-12T03:03:21;11.70;;;8.73;;
8230;SDS011;4156;50.908;6.974;2022-07-12T03:05:47;11.20;;;8.77;;
8230;SDS011;4156;50.908;6.974;2022-07-12T03:08:13;10.60;;;8.13;;
8230;SDS011;4156;50.908;6.974;2022-07-12T03:10:38;10.97;;;8.80;;
8230;SDS011;4156;50.908;6.974;2022-07-12T03:13:05;10.50;;;7.93;;
8230;SDS011;4156;50.908;6.974;2022-07-12T03:15:31;10.40;;;8.37;;
8230;SDS011;4156;50.908;6.974;2022-07-12T03:17:57;8.83;;;7.57;;
8230;SDS011;4156;50.908;6.974;2022-07-12T03:20:24;10.57;;;8.87;;
8230;SDS011;4156;50.908;6.974;2022-07-12T03:22:50;10.40;;;8.07;;
8230;SDS011;4156;50.908;6.974;2022-07-12T03:25:17;11.60;;;8.37;;
8230;SDS011;4156;50.908;6.974;2022-07-12T03:27:43;11.53;;;8.73;;
8230;SDS011;4156;50.908;6.974;2022-07-12T03:30:09;16.83;;;9.90;;
8230;SDS011;4156;50.908;6.974;2022-07-12T03:32:36;10.60;;;8.60;;
8230;SDS011;4156;50.908;6.974;2022-07-12T03:35:02;9.83;;;8.13;;
8230;SDS011;4156;50.908;6.974;2022-07-12T03:37:38;10.03;;;8.40;;
8230;SDS011;4156;50.908;6.974;2022-07-12T03:40:08;9.63;;;8.40;;
8230;SDS011;4156;50.908;6.974;2022-07-12T03:42:34;12.30;;;9.10;;
8230;SDS011;4156;50.908;6.974;2022-07-12T03:45:00;13.00;;;8.30;;
8230;SDS011;4156;50.908;6.974;2022-07-12T03:47:26;9.13;;;7.90;;
8230;SDS011;4156;50.908;6.974;2022-07-12T03:49:51;14.63;;;9.47;;
8230;SDS011;4156;50.908;6.974;2022-07-12T03:52:17;10.10;;;7.80;;
8230;SDS011;4156;50.908;6.974;2022-07-12T03:54:42;10.93;;;8.30;;
8230;SDS011;4156;50.908;6.974;2022-07-12T03:57:08;12.10;;;8.70;;
8230;SDS011;4156;50.908;6.974;2022-07-12T03:59:42;10.63;;;7.80;;
8230;SDS011;4156;50.908;6.974;2022-07-12T04:02:08;11.97;;;7.70;;
8230;SDS011;4156;50.908;6.974;2022-07-12T04:04:34;11.20;;;7.70;;
8230;SDS011;4156;50.908;6.974;2022-07-12T04:07:00;11.30;;;8.70;;
8230;SDS011;4156;50.908;6.974;2022-07-12T04:09:26;10.63;;;8.53;;
8230;SDS011;4156;50.908;6.974;2022-07-12T04:11:51;11.87;;;7.13;;
8230;SDS011;4156;50.908;6.974;2022-07-12T04:14:17;8.37;;;6.90;;
8230;SDS011;4156;50.908;6.974;2022-07-12T04:16:42;8.27;;;6.83;;
8230;SDS011;4156;50.908;6.974;2022-07-12T04:19:09;8.17;;;7.10;;
8230;SDS011;4156;50.908;6.974;2022-07-12T04:21:35;9.67;;;6.87;;
8230;SDS011;4156;50.908;6.974;2022-07-12T04:24:01;7.77;;;6.83;;
8230;SDS011;4156;50.908;6.974;2022-07-12T04:26:27;8.00;;;7.07;;
8230;SDS011;4156;50.908;6.974;2022-07-12T04:28:52;7.20;;;6.43;;
8230;SDS011;4156;50.908;6.974;2022-07-12T04:31:18;12.30;;;8.20;;
8230;SDS011;4156;50.908;6.974;2022-07-12T04:33:44;9.03;;;7.53;;
8230;SDS011;4156;50.908;6.974;2022-07-12T04:36:09;8.23;;;7.13;;
8230;SDS011;4156;50.908;6.974;2022-07-12T04:38:35;8.37;;;6.93;;
8230;SDS011;4156;50.908;6.974;2022-07-12T04:41:00;8.20;;;6.87;;
8230;SDS011;4156;50.908;6.974;2022-07-12T04:43:26;11.10;;;8.37;;
8230;SDS011;4156;50.908;6.974;2022-07-12T04:45:51;8.90;;;7.43;;
8230;SDS011;4156;50.908;6.974;2022-07-12T04:48:17;7.27;;;6.23;;
8230;SDS011;4156;50.908;6.974;2022-07-12T04:50:43;9.53;;;6.57;;
8230;SDS011;4156;50.908;6.974;2022-07-12T04:53:09;9.07;;;7.20;;
8230;SDS011;4156;50.908;6.974;2022-07-12T04:55:35;8.83;;;7.03;;
8230;SDS011;4156;50.908;6.974;2022-07-12T04:58:01;8.43;;;7.07;;
8230;SDS011;4156;50.908;6.974;2022-07-12T05:00:27;7.90;;;6.63;;
8230;SDS011;4156;50.908;6.974;2022-07-12T05:02:53;9.93;;;7.53;;
8230;SDS011;4156;50.908;6.974;2022-07-12T05:05:19;9.03;;;6.90;;
8230;SDS011;4156;50.908;6.974;2022-07-12T05:07:44;8.33;;;6.80;;
8230;SDS011;4156;50.908;6.974;2022-07-12T05:10:10;8.87;;;7.77;;
8230;SDS011;4156;50.908;6.974;2022-07-12T05:12:36;8.37;;;6.93;;
8230;SDS011;4156;50.908;6.974;2022-07-12T05:15:03;9.93;;;8.07;;
8230;SDS011;4156;50.908;6.974;2022-07-12T05:17:29;10.97;;;8.17;;
8230;SDS011;4156;50.908;6.974;2022-07-12T05:19:55;9.90;;;8.10;;
8230;SDS011;4156;50.908;6.974;2022-07-12T05:22:21;10.00;;;8.20;;
8230;SDS011;4156;50.908;6.974;2022-07-12T05:24:46;10.10;;;8.20;;
8230;SDS011;4156;50.908;6.974;2022-07-12T05:27:12;9.63;;;7.70;;
8230;SDS011;4156;50.908;6.974;2022-07-12T05:29:37;9.00;;;7.70;;
8230;SDS011;4156;50.908;6.974;2022-07-12T05:32:03;9.77;;;7.87;;
8230;SDS011;4156;50.908;6.974;2022-07-12T05:34:30;10.50;;;8.27;;
8230;SDS011;4156;50.908;6.974;2022-07-12T05:36:55;10.13;;;7.73;;
8230;SDS011;4156;50.908;6.974;2022-07-12T05:39:21;9.80;;;7.17;;
8230;SDS011;4156;50.908;6.974;2022-07-12T05:41:46;9.57;;;7.70;;
8230;SDS011;4156;50.908;6.974;2022-07-12T05:44:12;10.43;;;8.45;;
8230;SDS011;4156;50.908;6.974;2022-07-12T05:46:38;8.53;;;7.20;;
8230;SDS011;4156;50.908;6.974;2022-07-12T05:49:05;11.10;;;8.83;;
8230;SDS011;4156;50.908;6.974;2022-07-12T05:51:31;9.93;;;8.27;;
8230;SDS011;4156;50.908;6.974;2022-07-12T05:54:15;10.07;;;8.03;;
8230;SDS011;4156;50.908;6.974;2022-07-12T05:56:41;9.43;;;7.90;;
8230;SDS011;4156;50.908;6.974;2022-07-12T05:59:10;12.43;;;8.90;;
8230;SDS011;4156;50.908;6.974;2022-07-12T06:01:36;11.90;;;9.00;;
8230;SDS011;4156;50.908;6.974;2022-07-12T06:04:01;10.10;;;7.77;;
8230;SDS011;4156;50.908;6.974;2022-07-12T06:06:27;9.13;;;8.00;;
8230;SDS011;4156;50.908;6.974;2022-07-12T06:08:53;7.23;;;6.37;;
8230;SDS011;4156;50.908;6.974;2022-07-12T06:11:18;8.57;;;7.67;;
8230;SDS011;4156;50.908;6.974;2022-07-12T06:13:44;11.03;;;7.63;;
8230;SDS011;4156;50.908;6.974;2022-07-12T06:16:09;9.47;;;6.03;;
8230;SDS011;4156;50.908;6.974;2022-07-12T06:18:36;8.73;;;6.57;;
8230;SDS011;4156;50.908;6.974;2022-07-12T06:21:02;9.17;;;6.20;;
8230;SDS011;4156;50.908;6.974;2022-07-12T06:23:28;8.00;;;7.17;;
8230;SDS011;4156;50.908;6.974;2022-07-12T06:25:54;8.80;;;6.93;;
8230;SDS011;4156;50.908;6.974;2022-07-12T06:28:20;9.73;;;7.17;;
8230;SDS011;4156;50.908;6.974;2022-07-12T06:30:46;7.50;;;6.07;;
8230;SDS011;4156;50.908;6.974;2022-07-12T06:33:11;8.70;;;7.07;;
8230;SDS011;4156;50.908;6.974;2022-07-12T06:35:37;8.43;;;6.80;;
8230;SDS011;4156;50.908;6.974;2022-07-12T06:38:02;8.30;;;6.90;;
8230;SDS011;4156;50.908;6.974;2022-07-12T06:40:28;10.27;;;7.93;;
8230;SDS011;4156;50.908;6.974;2022-07-12T06:42:54;7.63;;;6.53;;
8230;SDS011;4156;50.908;6.974;2022-07-12T06:45:19;8.30;;;7.40;;
8230;SDS011;4156;50.908;6.974;2022-07-12T06:47:45;7.80;;;7.00;;
8230;SDS011;4156;50.908;6.974;2022-07-12T06:50:10;7.87;;;6.50;;
8230;SDS011;4156;50.908;6.974;2022-07-12T06:52:39;8.47;;;6.57;;
8230;SDS011;4156;50.908;6.974;2022-07-12T06:55:05;10.80;;;7.60;;
8230;SDS011;4156;50.908;6.974;2022-07-12T06:57:31;9.00;;;7.10;;
8230;SDS011;4156;50.908;6.974;2022-07-12T06:59:58;7.40;;;5.70;;
8230;SDS011;4156;50.908;6.974;2022-07-12T07:02:24;7.03;;;6.17;;
8230;SDS011;4156;50.908;6.974;2022-07-12T07:04:49;10.90;;;8.43;;
8230;SDS011;4156;50.908;6.974;2022-07-12T07:07:15;8.43;;;6.43;;
8230;SDS011;4156;50.908;6.974;2022-07-12T07:09:40;7.20;;;5.80;;
8230;SDS011;4156;50.908;6.974;2022-07-12T07:12:06;7.50;;;6.10;;
8230;SDS011;4156;50.908;6.974;2022-07-12T07:14:32;7.73;;;6.03;;
8230;SDS011;4156;50.908;6.974;2022-07-12T07:16:58;9.17;;;6.60;;
8230;SDS011;4156;50.908;6.974;2022-07-12T07:19:27;7.77;;;5.87;;
8230;SDS011;4156;50.908;6.974;2022-07-12T07:21:53;6.73;;;5.17;;
8230;SDS011;4156;50.908;6.974;2022-07-12T07:24:20;7.83;;;7.03;;
8230;SDS011;4156;50.908;6.974;2022-07-12T07:26:46;9.30;;;6.40;;
8230;SDS011;4156;50.908;6.974;2022-07-12T07:29:12;10.95;;;8.98;;
8230;SDS011;4156;50.908;6.974;2022-07-12T07:31:56;7.67;;;5.97;;
8230;SDS011;4156;50.908;6.974;2022-07-12T07:34:24;8.70;;;6.83;;
8230;SDS011;4156;50.908;6.974;2022-07-12T07:36:50;7.10;;;5.73;;
8230;SDS011;4156;50.908;6.974;2022-07-12T07:39:17;6.53;;;5.63;;
8230;SDS011;4156;50.908;6.974;2022-07-12T07:41:42;9.77;;;7.80;;
8230;SDS011;4156;50.908;6.974;2022-07-12T07:44:08;9.10;;;7.03;;
8230;SDS011;4156;50.908;6.974;2022-07-12T07:46:33;8.53;;;6.97;;
8230;SDS011;4156;50.908;6.974;2022-07-12T07:48:59;8.23;;;6.13;;
8230;SDS011;4156;50.908;6.974;2022-07-12T07:51:25;7.30;;;6.20;;
8230;SDS011;4156;50.908;6.974;2022-07-12T07:53:50;5.93;;;5.30;;
8230;SDS011;4156;50.908;6.974;2022-07-12T07:56:16;6.93;;;5.80;;
8230;SDS011;4156;50.908;6.974;2022-07-12T07:58:41;5.27;;;4.73;;
8230;SDS011;4156;50.908;6.974;2022-07-12T08:01:07;7.87;;;4.93;;
8230;SDS011;4156;50.908;6.974;2022-07-12T08:03:32;6.30;;;5.10;;
8230;SDS011;4156;50.908;6.974;2022-07-12T08:05:58;5.07;;;4.47;;
8230;SDS011;4156;50.908;6.974;2022-07-12T08:08:25;5.00;;;4.37;;
8230;SDS011;4156;50.908;6.974;2022-07-12T08:10:52;5.97;;;4.33;;
8230;SDS011;4156;50.908;6.974;2022-07-12T08:13:18;6.87;;;5.50;;
8230;SDS011;4156;50.908;6.974;2022-07-12T08:15:44;6.20;;;4.33;;
8230;SDS011;4156;50.908;6.974;2022-07-12T08:18:09;5.40;;;4.60;;
8230;SDS011;4156;50.908;6.974;2022-07-12T08:20:35;5.33;;;4.57;;
8230;SDS011;4156;50.908;6.974;2022-07-12T08:23:00;5.60;;;3.70;;
8230;SDS011;4156;50.908;6.974;2022-07-12T08:25:26;4.03;;;3.23;;
8230;SDS011;4156;50.908;6.974;2022-07-12T08:27:51;5.73;;;4.13;;
8230;SDS011;4156;50.908;6.974;2022-07-12T08:30:17;5.10;;;4.20;;
8230;SDS011;4156;50.908;6.974;2022-07-12T08:32:43;4.13;;;3.50;;
8230;SDS011;4156;50.908;6.974;2022-07-12T08:35:09;4.23;;;3.83;;
8230;SDS011;4156;50.908;6.974;2022-07-12T08:37:35;4.10;;;3.67;;
8230;SDS011;4156;50.908;6.974;2022-07-12T08:40:00;7.07;;;3.53;;
8230;SDS011;4156;50.908;6.974;2022-07-12T08:42:26;3.30;;;2.90;;
8230;SDS011;4156;50.908;6.974;2022-07-12T08:44:55;4.10;;;3.43;;
8230;SDS011;4156;50.908;6.974;2022-07-12T08:47:22;3.63;;;3.10;;
8230;SDS011;4156;50.908;6.974;2022-07-12T08:52:37;3.20;;;2.90;;
8230;SDS011;4156;50.908;6.974;2022-07-12T08:57:46;3.77;;;2.83;;
8230;SDS011;4156;50.908;6.974;2022-07-12T09:00:12;3.97;;;3.57;;
8230;SDS011;4156;50.908;6.974;2022-07-12T09:02:54;3.93;;;3.43;;
8230;SDS011;4156;50.908;6.974;2022-07-12T09:05:32;2.87;;;2.57;;
8230;SDS011;4156;50.908;6.974;2022-07-12T09:10:32;2.73;;;2.53;;
8230;SDS011;4156;50.908;6.974;2022-07-12T09:12:58;2.93;;;2.63;;
8230;SDS011;4156;50.908;6.974;2022-07-12T09:15:24;2.60;;;2.30;;
8230;SDS011;4156;50.908;6.974;2022-07-12T09:17:58;2.80;;;2.10;;
8230;SDS011;4156;50.908;6.974;2022-07-12T09:20:25;2.83;;;2.50;;
8230;SDS011;4156;50.908;6.974;2022-07-12T09:22:53;2.13;;;1.93;;
8230;SDS011;4156;50.908;6.974;2022-07-12T09:25:20;2.40;;;2.20;;
8230;SDS011;4156;50.908;6.974;2022-07-12T09:27:58;2.43;;;2.20;;
8230;SDS011;4156;50.908;6.974;2022-07-12T09:30:27;2.00;;;1.80;;
8230;SDS011;4156;50.908;6.974;2022-07-12T09:38:48;2.80;;;2.30;;
8230;SDS011;4156;50.908;6.974;2022-07-12T09:41:18;2.87;;;2.30;;
8230;SDS011;4156;50.908;6.974;2022-07-12T09:43:46;2.47;;;2.27;;
8230;SDS011;4156;50.908;6.974;2022-07-12T09:46:13;3.33;;;2.23;;
8230;SDS011;4156;50.908;6.974;2022-07-12T09:48:39;2.30;;;1.97;;
8230;SDS011;4156;50.908;6.974;2022-07-12T09:51:05;2.80;;;2.03;;
8230;SDS011;4156;50.908;6.974;2022-07-12T09:53:43;2.73;;;2.30;;
8230;SDS011;4156;50.908;6.974;2022-07-12T09:56:12;2.07;;;1.87;;
8230;SDS011;4156;50.908;6.974;2022-07-12T09:59:00;2.07;;;1.87;;
8230;SDS011;4156;50.908;6.974;2022-07-12T10:01:26;2.20;;;2.00;;
8230;SDS011;4156;50.908;6.974;2022-07-12T10:03:54;2.63;;;2.03;;
8230;SDS011;4156;50.908;6.974;2022-07-12T10:06:28;1.90;;;1.80;;
8230;SDS011;4156;50.908;6.974;2022-07-12T10:08:55;1.83;;;1.50;;
8230;SDS011;4156;50.908;6.974;2022-07-12T10:11:21;1.60;;;1.50;;
8230;SDS011;4156;50.908;6.974;2022-07-12T10:13:51;2.10;;;1.90;;
8230;SDS011;4156;50.908;6.974;2022-07-12T10:16:24;2.00;;;1.80;;
8230;SDS011;4156;50.908;6.974;2022-07-12T10:21:47;2.40;;;1.90;;
8230;SDS011;4156;50.908;6.974;2022-07-12T10:29:40;2.20;;;2.00;;
8230;SDS011;4156;50.908;6.974;2022-07-12T10:35:03;2.00;;;1.63;;
8230;SDS011;4156;50.908;6.974;2022-07-12T10:37:30;1.70;;;1.60;;
8230;SDS011;4156;50.908;6.974;2022-07-12T10:40:16;2.57;;;1.70;;
8230;SDS011;4156;50.908;6.974;2022-07-12T10:45:32;1.60;;;1.50;;
8230;SDS011;4156;50.908;6.974;2022-07-12T10:48:02;2.87;;;2.00;;
8230;SDS011;4156;50.908;6.974;2022-07-12T10:53:37;2.40;;;2.00;;
8230;SDS011;4156;50.908;6.974;2022-07-12T11:01:12;1.73;;;1.60;;
8230;SDS011;4156;50.908;6.974;2022-07-12T11:03:43;1.60;;;1.50;;
8230;SDS011;4156;50.908;6.974;2022-07-12T11:06:22;1.60;;;1.50;;
8230;SDS011;4156;50.908;6.974;2022-07-12T11:08:58;1.83;;;1.60;;
8230;SDS011;4156;50.908;6.974;2022-07-12T11:11:29;1.57;;;1.47;;
8230;SDS011;4156;50.908;6.974;2022-07-12T11:13:56;1.60;;;1.50;;
8230;SDS011;4156;50.908;6.974;2022-07-12T11:16:23;2.07;;;1.73;;
8230;SDS011;4156;50.908;6.974;2022-07-12T11:18:49;2.60;;;2.10;;
8230;SDS011;4156;50.908;6.974;2022-07-12T11:21:16;2.57;;;1.80;;
8230;SDS011;4156;50.908;6.974;2022-07-12T11:23:42;2.47;;;1.90;;
8230;SDS011;4156;50.908;6.974;2022-07-12T11:26:08;1.80;;;1.70;;
8230;SDS011;4156;50.908;6.974;2022-07-12T11:28:34;5.43;;;1.60;;
8230;SDS011;4156;50.908;6.974;2022-07-12T11:31:01;3.13;;;2.07;;
8230;SDS011;4156;50.908;6.974;2022-07-12T11:33:32;2.67;;;1.83;;
8230;SDS011;4156;50.908;6.974;2022-07-12T11:36:03;2.00;;;1.63;;
8230;SDS011;4156;50.908;6.974;2022-07-12T11:38:30;7.57;;;2.17;;
8230;SDS011;4156;50.908;6.974;2022-07-12T11:41:00;2.20;;;1.73;;
8230;SDS011;4156;50.908;6.974;2022-07-12T11:43:28;1.77;;;1.50;;
8230;SDS011;4156;50.908;6.974;2022-07-12T11:45:54;3.30;;;1.70;;
8230;SDS011;4156;50.908;6.974;2022-07-12T11:48:21;2.90;;;1.87;;
8230;SDS011;4156;50.908;6.974;2022-07-12T11:50:47;4.30;;;1.80;;
8230;SDS011;4156;50.908;6.974;2022-07-12T11:53:22;2.33;;;1.97;;
8230;SDS011;4156;50.908;6.974;2022-07-12T11:55:53;2.07;;;1.83;;
8230;SDS011;4156;50.908;6.974;2022-07-12T11:58:21;1.60;;;1.50;;
8230;SDS011;4156;50.908;6.974;2022-07-12T12:00:48;2.03;;;1.80;;
8230;SDS011;4156;50.908;6.974;2022-07-12T12:03:14;1.83;;;1.70;;
8230;SDS011;4156;50.908;6.974;2022-07-12T12:05:41;1.80;;;1.60;;
8230;SDS011;4156;50.908;6.974;2022-07-12T12:08:08;1.60;;;1.50;;
8230;SDS011;4156;50.908;6.974;2022-07-12T12:10:37;2.00;;;1.70;;
8230;SDS011;4156;50.908;6.974;2022-07-12T12:13:11;3.03;;;1.60;;
8230;SDS011;4156;50.908;6.974;2022-07-12T12:15:41;2.63;;;1.80;;
8230;SDS011;4156;50.908;6.974;2022-07-12T12:18:13;3.63;;;1.40;;
8230;SDS011;4156;50.908;6.974;2022-07-12T12:20:39;1.53;;;1.43;;
8230;SDS011;4156;50.908;6.974;2022-07-12T12:23:15;1.63;;;1.53;;
8230;SDS011;4156;50.908;6.974;2022-07-12T12:25:42;1.60;;;1.50;;
8230;SDS011;4156;50.908;6.974;2022-07-12T12:28:07;1.50;;;1.40;;
8230;SDS011;4156;50.908;6.974;2022-07-12T12:30:34;1.67;;;1.57;;
8230;SDS011;4156;50.908;6.974;2022-07-12T12:33:12;1.90;;;1.73;;
8230;SDS011;4156;50.908;6.974;2022-07-12T12:35:38;1.60;;;1.50;;
8230;SDS011;4156;50.908;6.974;2022-07-12T12:38:14;2.07;;;1.83;;
8230;SDS011;4156;50.908;6.974;2022-07-12T12:40:40;1.67;;;1.57;;
8230;SDS011;4156;50.908;6.974;2022-07-12T12:43:19;1.67;;;1.53;;
8230;SDS011;4156;50.908;6.974;2022-07-12T12:45:48;3.03;;;1.40;;
8230;SDS011;4156;50.908;6.974;2022-07-12T12:48:18;1.50;;;1.40;;
8230;SDS011;4156;50.908;6.974;2022-07-12T12:50:48;2.43;;;1.40;;
8230;SDS011;4156;50.908;6.974;2022-07-12T12:53:22;1.67;;;1.57;;
8230;SDS011;4156;50.908;6.974;2022-07-12T12:55:49;1.50;;;1.40;;
8230;SDS011;4156;50.908;6.974;2022-07-12T12:58:16;1.53;;;1.43;;
8230;SDS011;4156;50.908;6.974;2022-07-12T13:00:44;1.63;;;1.53;;
8230;SDS011;4156;50.908;6.974;2022-07-12T13:03:11;2.63;;;1.47;;
8230;SDS011;4156;50.908;6.974;2022-07-12T13:05:39;1.60;;;1.23;;
8230;SDS011;4156;50.908;6.974;2022-07-12T13:08:07;1.60;;;1.50;;
8230;SDS011;4156;50.908;6.974;2022-07-12T13:10:34;1.57;;;1.40;;
8230;SDS011;4156;50.908;6.974;2022-07-12T13:13:01;1.40;;;1.30;;
8230;SDS011;4156;50.908;6.974;2022-07-12T13:15:28;1.70;;;1.60;;
8230;SDS011;4156;50.908;6.974;2022-07-12T13:17:54;2.50;;;1.70;;
8230;SDS011;4156;50.908;6.974;2022-07-12T13:20:20;2.37;;;1.43;;
8230;SDS011;4156;50.908;6.974;2022-07-12T13:22:46;4.37;;;1.67;;
8230;SDS011;4156;50.908;6.974;2022-07-12T13:25:12;2.10;;;1.90;;
8230;SDS011;4156;50.908;6.974;2022-07-12T13:27:39;1.97;;;1.77;;
8230;SDS011;4156;50.908;6.974;2022-07-12T13:30:07;2.30;;;1.60;;
8230;SDS011;4156;50.908;6.974;2022-07-12T13:32:35;2.07;;;1.33;;
8230;SDS011;4156;50.908;6.974;2022-07-12T13:35:01;3.67;;;1.50;;
8230;SDS011;4156;50.908;6.974;2022-07-12T13:37:28;1.90;;;1.67;;
8230;SDS011;4156;50.908;6.974;2022-07-12T13:39:53;2.33;;;1.50;;
8230;SDS011;4156;50.908;6.974;2022-07-12T13:42:38;1.27;;;1.17;;
8230;SDS011;4156;50.908;6.974;2022-07-12T13:45:15;2.03;;;1.63;;
8230;SDS011;4156;50.908;6.974;2022-07-12T13:47:42;3.10;;;1.80;;
8230;SDS011;4156;50.908;6.974;2022-07-12T13:50:10;1.90;;;1.27;;
8230;SDS011;4156;50.908;6.974;2022-07-12T13:52:36;1.60;;;1.30;;
8230;SDS011;4156;50.908;6.974;2022-07-12T13:55:03;1.30;;;1.20;;
8230;SDS011;4156;50.908;6.974;2022-07-12T13:57:29;1.60;;;1.50;;
8230;SDS011;4156;50.908;6.974;2022-07-12T13:59:56;1.37;;;1.27;;
8230;SDS011;4156;50.908;6.974;2022-07-12T14:02:23;1.37;;;1.17;;
8230;SDS011;4156;50.908;6.974;2022-07-12T14:04:49;6.63;;;1.40;;
8230;SDS011;4156;50.908;6.974;2022-07-12T14:07:14;0.93;;;0.93;;
8230;SDS011;4156;50.908;6.974;2022-07-12T14:09:40;1.23;;;1.13;;
8230;SDS011;4156;50.908;6.974;2022-07-12T14:12:06;1.30;;;1.20;;
8230;SDS011;4156;50.908;6.974;2022-07-12T14:14:33;1.50;;;1.30;;
8230;SDS011;4156;50.908;6.974;2022-07-12T14:17:19;1.23;;;1.13;;
8230;SDS011;4156;50.908;6.974;2022-07-12T14:19:45;1.10;;;1.00;;
8230;SDS011;4156;50.908;6.974;2022-07-12T14:22:10;1.30;;;1.20;;
8230;SDS011;4156;50.908;6.974;2022-07-12T14:24:36;2.23;;;0.90;;
8230;SDS011;4156;50.908;6.974;2022-07-12T14:27:01;1.53;;;1.40;;
8230;SDS011;4156;50.908;6.974;2022-07-12T14:29:27;1.30;;;1.20;;
8230;SDS011;4156;50.908;6.974;2022-07-12T14:31:53;2.10;;;1.23;;
8230;SDS011;4156;50.908;6.974;2022-07-12T14:34:20;1.30;;;1.20;;
8230;SDS011;4156;50.908;6.974;2022-07-12T14:36:48;1.77;;;1.17;;
8230;SDS011;4156;50.908;6.974;2022-07-12T14:39:14;1.47;;;1.30;;
8230;SDS011;4156;50.908;6.974;2022-07-12T14:41:40;1.60;;;1.40;;
8230;SDS011;4156;50.908;6.974;2022-07-12T14:44:05;1.50;;;1.40;;
8230;SDS011;4156;50.908;6.974;2022-07-12T14:46:34;4.63;;;1.40;;
8230;SDS011;4156;50.908;6.974;2022-07-12T14:48:59;1.23;;;1.13;;
8230;SDS011;4156;50.908;6.974;2022-07-12T14:51:25;1.27;;;1.17;;
8230;SDS011;4156;50.908;6.974;2022-07-12T14:53:51;1.40;;;1.30;;
8230;SDS011;4156;50.908;6.974;2022-07-12T14:56:17;1.98;;;1.20;;
8230;SDS011;4156;50.908;6.974;2022-07-12T14:58:44;1.40;;;1.30;;
8230;SDS011;4156;50.908;6.974;2022-07-12T15:01:09;1.30;;;1.20;;
8230;SDS011;4156;50.908;6.974;2022-07-12T15:03:35;1.58;;;1.40;;
8230;SDS011;4156;50.908;6.974;2022-07-12T15:06:00;1.93;;;1.40;;
8230;SDS011;4156;50.908;6.974;2022-07-12T15:08:26;1.45;;;1.35;;
8230;SDS011;4156;50.908;6.974;2022-07-12T15:10:51;1.80;;;1.40;;
8230;SDS011;4156;50.908;6.974;2022-07-12T15:13:17;2.23;;;1.50;;
8230;SDS011;4156;50.908;6.974;2022-07-12T15:15:42;2.95;;;1.60;;
8230;SDS011;4156;50.908;6.974;2022-07-12T15:18:09;1.42;;;1.33;;
8230;SDS011;4156;50.908;6.974;2022-07-12T15:20:34;1.50;;;1.40;;
8230;SDS011;4156;50.908;6.974;2022-07-12T15:23:00;2.67;;;1.13;;
8230;SDS011;4156;50.908;6.974;2022-07-12T15:25:27;2.08;;;1.40;;
8230;SDS011;4156;50.908;6.974;2022-07-12T15:27:53;2.00;;;1.50;;
8230;SDS011;4156;50.908;6.974;2022-07-12T15:30:18;1.33;;;1.23;;
8230;SDS011;4156;50.908;6.974;2022-07-12T15:32:44;1.90;;;1.30;;
8230;SDS011;4156;50.908;6.974;2022-07-12T15:35:10;1.65;;;1.40;;
8230;SDS011;4156;50.908;6.974;2022-07-12T15:37:35;1.73;;;1.50;;
8230;SDS011;4156;50.908;6.974;2022-07-12T15:40:01;1.88;;;1.52;;
8230;SDS011;4156;50.908;6.974;2022-07-12T15:42:27;1.73;;;1.52;;
8230;SDS011;4156;50.908;6.974;2022-07-12T15:44:53;1.90;;;1.50;;